Easton, WA

1:38 AM PDT on September 18, 2014 (GMT -0700)
Cle Elum Wa - GiddyLodge | Change Station
CLOSE
Current Station
Personal Weather Station
Location: Cle Elum, WA
Elevation: 2117 ft
Nearby Weather Stations
4.0 Earthquake: Seabeck, Washington (22 hours ago)  

Elev 2117 ft 47.21 °N, 121.11 °W | Updated 5 minutes ago

Partly Cloudy
Partly Cloudy
61.0 °F
Feels Like 61.0 °F
N
6.0
Wind Variable Wind from NW
Gusts 9.0 mph

Today
High -- | Low -- °F
--% Chance of Precip.
Yesterday
High -- | Low -- °F
Precip. -- in
6:46 AM 7:10 PM
Waning Crescent, 29% visible
Pressure 29.82 in
Visibility 0.5 miles
Clouds
Dew Point 54 °F
Humidity 78%
Rainfall 0.00 in
Snow Depth Not available.
UV Not available.
Pollen 1.70 out of 12
Air Quality Not available.
Flu Activity Not available.
SPECI KSMP 180815Z AUTO 24004KT 1/2SM FG VV001 11/09 A2982 RMK AO2 T01060094 $

More Conditions Fewer Conditions

Pressure 29.82 in
Visibility 0.5 miles
Clouds
Dew Point 54 °F
Humidity 78%
Rainfall 0.00 in
Snow Depth Not available.
UV Not available.
Pollen 1.70 out of 12
Air Quality Not available.
Flu Activity Not available.
SPECI KSMP 180815Z AUTO 24004KT 1/2SM FG VV001 11/09 A2982 RMK AO2 T01060094 $

More Conditions Fewer Conditions

10-Day Weather Forecast

Almanac

Astronomy

Sep. 18, 2014 Rise Set
Actual Time 6:46 AM PDT 7:10 PM PDT
Civil Twilight 6:15 AM PDT 7:40 PM PDT
Nautical Twilight 5:39 AM PDT 8:17 PM PDT
Astronomical Twilight 5:01 AM PDT 8:54 PM PDT
Moon 1:27 AM PDT 4:19 PM PDT
Length of Visible Light 13h 25m
Length of Day
12h 24m
Tomorrow will be 3m 22s shorter.
Waning Crescent, 29% of the Moon is Illuminated
Today
Waning Crescent
Sep 24
New
Oct 1
First Quarter
Oct 8
Full
Oct 15
Last Quarter

Today's Extremes

State Highs State Lows

Community

WunderPhotos

Upload Photos

1,754,310 photos uploaded!

Nearby

Snow Depth

Station Depth Elevation
Trough 0 in 5300 ft
Lone Pine 0 in 3800 ft
Wells Creek 0 in 4200 ft
Elbow Lake 0 in 3200 ft
Alpine Meadows 0 in 3500 ft

Earthquake Activity

City Distance Mag. Time & Date
Seabeck, Washington 88 miles 4.0 3:06 AM PDT
2014-09-17
Morton, Washington 84 miles 3.0 5:43 AM PDT
2014-09-16
Minimum magnitude displayed is 2.5.

Coastal Water Temperatures

Place Temperature
No Stations Reporting

Nearby Weather Stations